Terminal Aerodrome Forecast
Issued by NWS

Home | Current Version | Previous Version | Graphics & Text | Print | Product List | Glossary On
Versions: 1 2 3 4 5 6 7 8 9 10 11 12
943
FTUS43 KUNR 222320
TAFGCC
TAF
KGCC 222320Z 2300/2324 VRB05KT P6SM BKN150
     FM232000 18009KT P6SM SCT060 BKN150=

USA.gov is the U.S. government's official web portal to all federal, state and local government web resources and services.